sensor_id;sensor_type;location;lat;lon;timestamp;P1;durP1;ratioP1;P2;durP2;ratioP2
39454;SDS011;25155;41.890;23.446;2023-04-01T04:48:31;27.42;;;18.17;;
39454;SDS011;25155;41.890;23.446;2023-04-01T04:50:59;23.52;;;16.58;;
39454;SDS011;25155;41.890;23.446;2023-04-01T04:53:26;23.00;;;15.70;;
39454;SDS011;25155;41.890;23.446;2023-04-01T04:55:53;19.95;;;13.77;;
39454;SDS011;25155;41.890;23.446;2023-04-01T04:58:20;24.23;;;15.60;;
39454;SDS011;25155;41.890;23.446;2023-04-01T05:00:47;24.23;;;17.77;;
39454;SDS011;25155;41.890;23.446;2023-04-01T05:03:14;23.92;;;17.10;;
39454;SDS011;25155;41.890;23.446;2023-04-01T05:05:49;20.27;;;14.45;;
39454;SDS011;25155;41.890;23.446;2023-04-01T05:08:18;19.13;;;14.07;;
39454;SDS011;25155;41.890;23.446;2023-04-01T05:10:46;20.52;;;14.18;;
39454;SDS011;25155;41.890;23.446;2023-04-01T05:13:14;16.00;;;11.65;;
39454;SDS011;25155;41.890;23.446;2023-04-01T05:15:41;18.13;;;13.80;;
39454;SDS011;25155;41.890;23.446;2023-04-01T05:18:08;14.90;;;11.70;;
39454;SDS011;25155;41.890;23.446;2023-04-01T05:20:35;12.85;;;10.30;;
39454;SDS011;25155;41.890;23.446;2023-04-01T05:23:04;18.98;;;13.68;;
39454;SDS011;25155;41.890;23.446;2023-04-01T05:25:31;15.18;;;10.85;;
39454;SDS011;25155;41.890;23.446;2023-04-01T05:27:58;16.80;;;12.57;;
39454;SDS011;25155;41.890;23.446;2023-04-01T05:30:25;19.38;;;14.07;;
39454;SDS011;25155;41.890;23.446;2023-04-01T05:32:52;17.98;;;14.15;;
39454;SDS011;25155;41.890;23.446;2023-04-01T05:35:19;16.75;;;12.30;;
39454;SDS011;25155;41.890;23.446;2023-04-01T05:37:46;21.13;;;15.23;;
39454;SDS011;25155;41.890;23.446;2023-04-01T05:40:16;19.05;;;15.10;;
39454;SDS011;25155;41.890;23.446;2023-04-01T05:42:43;15.93;;;12.70;;
39454;SDS011;25155;41.890;23.446;2023-04-01T05:45:10;20.20;;;15.45;;
39454;SDS011;25155;41.890;23.446;2023-04-01T05:47:40;18.13;;;14.88;;
39454;SDS011;25155;41.890;23.446;2023-04-01T05:50:08;29.10;;;21.17;;
39454;SDS011;25155;41.890;23.446;2023-04-01T05:52:36;31.20;;;23.15;;
39454;SDS011;25155;41.890;23.446;2023-04-01T05:55:04;47.30;;;35.72;;
39454;SDS011;25155;41.890;23.446;2023-04-01T05:57:33;47.47;;;34.67;;
39454;SDS011;25155;41.890;23.446;2023-04-01T06:00:00;75.40;;;52.85;;
39454;SDS011;25155;41.890;23.446;2023-04-01T06:02:27;76.15;;;54.22;;
39454;SDS011;25155;41.890;23.446;2023-04-01T06:04:58;67.97;;;47.05;;
39454;SDS011;25155;41.890;23.446;2023-04-01T06:22:35;63.30;;;47.22;;
39454;SDS011;25155;41.890;23.446;2023-04-01T06:25:29;48.47;;;35.20;;
39454;SDS011;25155;41.890;23.446;2023-04-01T06:28:15;46.63;;;33.92;;
39454;SDS011;25155;41.890;23.446;2023-04-01T06:31:03;33.67;;;25.15;;
39454;SDS011;25155;41.890;23.446;2023-04-01T06:33:41;35.85;;;25.60;;
39454;SDS011;25155;41.890;23.446;2023-04-01T06:45:22;25.02;;;19.38;;
39454;SDS011;25155;41.890;23.446;2023-04-01T06:48:05;30.27;;;19.02;;
39454;SDS011;25155;41.890;23.446;2023-04-01T06:50:48;24.50;;;18.90;;
39454;SDS011;25155;41.890;23.446;2023-04-01T06:53:23;27.63;;;16.65;;
39454;SDS011;25155;41.890;23.446;2023-04-01T06:55:59;26.02;;;18.67;;
39454;SDS011;25155;41.890;23.446;2023-04-01T06:58:30;29.67;;;20.45;;
39454;SDS011;25155;41.890;23.446;2023-04-01T07:01:04;23.92;;;17.13;;
39454;SDS011;25155;41.890;23.446;2023-04-01T07:03:35;20.08;;;15.32;;
39454;SDS011;25155;41.890;23.446;2023-04-01T07:06:08;23.85;;;17.17;;
39454;SDS011;25155;41.890;23.446;2023-04-01T07:08:40;28.92;;;19.90;;
39454;SDS011;25155;41.890;23.446;2023-04-01T07:11:14;23.65;;;17.85;;
39454;SDS011;25155;41.890;23.446;2023-04-01T07:13:52;20.08;;;14.80;;
39454;SDS011;25155;41.890;23.446;2023-04-01T07:16:22;20.25;;;13.38;;
39454;SDS011;25155;41.890;23.446;2023-04-01T07:18:56;25.55;;;15.95;;
39454;SDS011;25155;41.890;23.446;2023-04-01T07:21:29;18.20;;;12.88;;
39454;SDS011;25155;41.890;23.446;2023-04-01T07:24:02;14.35;;;9.80;;
39454;SDS011;25155;41.890;23.446;2023-04-01T07:26:34;14.13;;;9.27;;
39454;SDS011;25155;41.890;23.446;2023-04-01T07:29:01;16.23;;;9.88;;
39454;SDS011;25155;41.890;23.446;2023-04-01T07:31:37;14.07;;;10.52;;
39454;SDS011;25155;41.890;23.446;2023-04-01T07:34:18;14.15;;;10.35;;
39454;SDS011;25155;41.890;23.446;2023-04-01T07:36:52;14.98;;;9.88;;
39454;SDS011;25155;41.890;23.446;2023-04-01T07:39:30;14.10;;;9.52;;
39454;SDS011;25155;41.890;23.446;2023-04-01T07:42:07;13.02;;;8.70;;
39454;SDS011;25155;41.890;23.446;2023-04-01T07:44:44;15.68;;;10.45;;
39454;SDS011;25155;41.890;23.446;2023-04-01T07:47:28;12.55;;;8.35;;
39454;SDS011;25155;41.890;23.446;2023-04-01T07:50:10;14.07;;;9.07;;
39454;SDS011;25155;41.890;23.446;2023-04-01T07:52:47;12.80;;;8.45;;
39454;SDS011;25155;41.890;23.446;2023-04-01T07:55:23;11.43;;;8.00;;
39454;SDS011;25155;41.890;23.446;2023-04-01T07:57:58;14.85;;;8.88;;
39454;SDS011;25155;41.890;23.446;2023-04-01T08:00:31;13.88;;;9.32;;
39454;SDS011;25155;41.890;23.446;2023-04-01T08:03:15;13.55;;;9.38;;
39454;SDS011;25155;41.890;23.446;2023-04-01T08:05:53;14.80;;;9.95;;
39454;SDS011;25155;41.890;23.446;2023-04-01T08:08:27;13.57;;;9.43;;
39454;SDS011;25155;41.890;23.446;2023-04-01T08:11:05;16.10;;;8.68;;
39454;SDS011;25155;41.890;23.446;2023-04-01T08:13:39;10.45;;;7.20;;
39454;SDS011;25155;41.890;23.446;2023-04-01T08:16:12;8.35;;;5.30;;
39454;SDS011;25155;41.890;23.446;2023-04-01T08:18:47;10.65;;;7.80;;
39454;SDS011;25155;41.890;23.446;2023-04-01T08:21:25;11.18;;;7.57;;
39454;SDS011;25155;41.890;23.446;2023-04-01T08:23:55;10.80;;;6.65;;
39454;SDS011;25155;41.890;23.446;2023-04-01T08:26:28;11.52;;;7.00;;
39454;SDS011;25155;41.890;23.446;2023-04-01T08:29:04;8.63;;;5.63;;
39454;SDS011;25155;41.890;23.446;2023-04-01T08:31:39;9.70;;;6.00;;
39454;SDS011;25155;41.890;23.446;2023-04-01T08:34:13;8.43;;;5.63;;
39454;SDS011;25155;41.890;23.446;2023-04-01T08:36:45;8.93;;;6.05;;
39454;SDS011;25155;41.890;23.446;2023-04-01T08:39:20;10.43;;;6.18;;
39454;SDS011;25155;41.890;23.446;2023-04-01T08:42:07;9.02;;;5.03;;
39454;SDS011;25155;41.890;23.446;2023-04-01T08:47:46;7.40;;;4.82;;
39454;SDS011;25155;41.890;23.446;2023-04-01T08:50:40;7.80;;;5.10;;
39454;SDS011;25155;41.890;23.446;2023-04-01T08:53:34;6.75;;;4.40;;
39454;SDS011;25155;41.890;23.446;2023-04-01T08:56:18;6.25;;;4.15;;
39454;SDS011;25155;41.890;23.446;2023-04-01T09:05:28;8.23;;;4.05;;
39454;SDS011;25155;41.890;23.446;2023-04-01T09:08:07;6.13;;;3.60;;
39454;SDS011;25155;41.890;23.446;2023-04-01T09:13:57;7.07;;;4.15;;
39454;SDS011;25155;41.890;23.446;2023-04-01T09:16:59;5.35;;;3.80;;
39454;SDS011;25155;41.890;23.446;2023-04-01T09:19:47;6.78;;;4.05;;
39454;SDS011;25155;41.890;23.446;2023-04-01T09:22:32;8.90;;;5.18;;
39454;SDS011;25155;41.890;23.446;2023-04-01T09:28:13;8.82;;;5.45;;
39454;SDS011;25155;41.890;23.446;2023-04-01T09:36:54;12.82;;;6.95;;
39454;SDS011;25155;41.890;23.446;2023-04-01T09:39:44;11.38;;;6.97;;
39454;SDS011;25155;41.890;23.446;2023-04-01T09:42:50;12.68;;;7.47;;
39454;SDS011;25155;41.890;23.446;2023-04-01T09:45:37;12.40;;;7.80;;
39454;SDS011;25155;41.890;23.446;2023-04-01T09:48:14;10.88;;;6.88;;
39454;SDS011;25155;41.890;23.446;2023-04-01T09:50:52;11.50;;;6.28;;
39454;SDS011;25155;41.890;23.446;2023-04-01T09:53:44;9.88;;;6.10;;
39454;SDS011;25155;41.890;23.446;2023-04-01T09:59:32;9.15;;;4.55;;
39454;SDS011;25155;41.890;23.446;2023-04-01T10:02:40;6.97;;;4.10;;
39454;SDS011;25155;41.890;23.446;2023-04-01T10:05:44;8.57;;;4.38;;
39454;SDS011;25155;41.890;23.446;2023-04-01T10:11:45;6.60;;;3.70;;
39454;SDS011;25155;41.890;23.446;2023-04-01T10:14:39;8.32;;;4.38;;
39454;SDS011;25155;41.890;23.446;2023-04-01T10:20:26;5.70;;;3.40;;
39454;SDS011;25155;41.890;23.446;2023-04-01T10:23:21;5.47;;;3.42;;
39454;SDS011;25155;41.890;23.446;2023-04-01T10:26:08;6.85;;;3.95;;
39454;SDS011;25155;41.890;23.446;2023-04-01T10:44:40;4.68;;;2.72;;
39454;SDS011;25155;41.890;23.446;2023-04-01T10:47:33;6.05;;;3.10;;
39454;SDS011;25155;41.890;23.446;2023-04-01T10:50:24;5.25;;;2.90;;
39454;SDS011;25155;41.890;23.446;2023-04-01T10:53:24;7.85;;;3.50;;
39454;SDS011;25155;41.890;23.446;2023-04-01T10:59:11;6.18;;;3.55;;
39454;SDS011;25155;41.890;23.446;2023-04-01T11:02:10;9.20;;;3.67;;
39454;SDS011;25155;41.890;23.446;2023-04-01T11:14:29;4.33;;;2.60;;
39454;SDS011;25155;41.890;23.446;2023-04-01T11:20:14;4.35;;;2.60;;
39454;SDS011;25155;41.890;23.446;2023-04-01T11:23:00;7.82;;;2.70;;
39454;SDS011;25155;41.890;23.446;2023-04-01T11:25:47;4.90;;;2.50;;
39454;SDS011;25155;41.890;23.446;2023-04-01T11:28:28;6.80;;;2.95;;
39454;SDS011;25155;41.890;23.446;2023-04-01T11:31:18;7.05;;;2.90;;
39454;SDS011;25155;41.890;23.446;2023-04-01T11:34:00;6.63;;;3.00;;
39454;SDS011;25155;41.890;23.446;2023-04-01T11:36:37;5.93;;;2.90;;
39454;SDS011;25155;41.890;23.446;2023-04-01T11:39:21;5.78;;;2.75;;
39454;SDS011;25155;41.890;23.446;2023-04-01T11:41:58;8.10;;;3.08;;
39454;SDS011;25155;41.890;23.446;2023-04-01T11:44:36;10.30;;;2.85;;
39454;SDS011;25155;41.890;23.446;2023-04-01T11:47:15;27.52;;;3.40;;
39454;SDS011;25155;41.890;23.446;2023-04-01T11:49:55;15.10;;;2.92;;
39454;SDS011;25155;41.890;23.446;2023-04-01T11:55:39;9.15;;;3.22;;
39454;SDS011;25155;41.890;23.446;2023-04-01T11:58:28;11.05;;;2.83;;
39454;SDS011;25155;41.890;23.446;2023-04-01T12:01:09;9.05;;;2.90;;
39454;SDS011;25155;41.890;23.446;2023-04-01T12:04:04;12.30;;;2.88;;
39454;SDS011;25155;41.890;23.446;2023-04-01T12:06:57;7.28;;;3.05;;
39454;SDS011;25155;41.890;23.446;2023-04-01T12:09:32;6.55;;;2.83;;
39454;SDS011;25155;41.890;23.446;2023-04-01T12:12:12;8.15;;;2.75;;
39454;SDS011;25155;41.890;23.446;2023-04-01T12:14:51;9.32;;;2.80;;
39454;SDS011;25155;41.890;23.446;2023-04-01T12:17:28;9.93;;;2.72;;
39454;SDS011;25155;41.890;23.446;2023-04-01T12:20:13;7.78;;;2.60;;
39454;SDS011;25155;41.890;23.446;2023-04-01T12:22:56;7.45;;;2.90;;
39454;SDS011;25155;41.890;23.446;2023-04-01T12:25:47;7.18;;;2.60;;
39454;SDS011;25155;41.890;23.446;2023-04-01T12:28:29;9.98;;;2.92;;
39454;SDS011;25155;41.890;23.446;2023-04-01T12:31:19;6.20;;;2.63;;
39454;SDS011;25155;41.890;23.446;2023-04-01T12:33:59;6.65;;;2.30;;
39454;SDS011;25155;41.890;23.446;2023-04-01T12:37:02;6.22;;;2.88;;
39454;SDS011;25155;41.890;23.446;2023-04-01T12:39:44;6.80;;;2.55;;
39454;SDS011;25155;41.890;23.446;2023-04-01T12:42:27;5.18;;;2.40;;
39454;SDS011;25155;41.890;23.446;2023-04-01T12:45:08;5.47;;;2.45;;
39454;SDS011;25155;41.890;23.446;2023-04-01T12:54:11;4.82;;;2.10;;
39454;SDS011;25155;41.890;23.446;2023-04-01T12:56:54;5.35;;;2.33;;
39454;SDS011;25155;41.890;23.446;2023-04-01T12:59:42;6.32;;;2.20;;
39454;SDS011;25155;41.890;23.446;2023-04-01T13:02:23;3.65;;;1.88;;
39454;SDS011;25155;41.890;23.446;2023-04-01T13:05:18;5.18;;;2.20;;
39454;SDS011;25155;41.890;23.446;2023-04-01T13:08:00;6.38;;;2.33;;
39454;SDS011;25155;41.890;23.446;2023-04-01T13:10:50;4.28;;;2.25;;
39454;SDS011;25155;41.890;23.446;2023-04-01T13:13:39;4.78;;;2.47;;
39454;SDS011;25155;41.890;23.446;2023-04-01T13:16:22;3.80;;;2.35;;
39454;SDS011;25155;41.890;23.446;2023-04-01T13:18:54;5.80;;;3.17;;
39454;SDS011;25155;41.890;23.446;2023-04-01T13:21:29;5.30;;;2.22;;
39454;SDS011;25155;41.890;23.446;2023-04-01T13:24:04;9.88;;;2.63;;
39454;SDS011;25155;41.890;23.446;2023-04-01T13:26:42;7.70;;;2.55;;
39454;SDS011;25155;41.890;23.446;2023-04-01T13:29:20;8.10;;;2.58;;
39454;SDS011;25155;41.890;23.446;2023-04-01T13:31:58;8.10;;;2.78;;
39454;SDS011;25155;41.890;23.446;2023-04-01T13:34:34;5.97;;;2.50;;
39454;SDS011;25155;41.890;23.446;2023-04-01T13:37:11;6.43;;;2.67;;
39454;SDS011;25155;41.890;23.446;2023-04-01T13:39:54;3.97;;;2.20;;
39454;SDS011;25155;41.890;23.446;2023-04-01T13:42:31;4.57;;;2.33;;
39454;SDS011;25155;41.890;23.446;2023-04-01T13:45:09;6.90;;;2.47;;
39454;SDS011;25155;41.890;23.446;2023-04-01T13:47:54;6.15;;;2.58;;
39454;SDS011;25155;41.890;23.446;2023-04-01T13:50:50;6.75;;;2.90;;
39454;SDS011;25155;41.890;23.446;2023-04-01T13:53:44;7.07;;;2.30;;
39454;SDS011;25155;41.890;23.446;2023-04-01T13:56:34;4.82;;;2.17;;
39454;SDS011;25155;41.890;23.446;2023-04-01T13:59:24;4.30;;;2.20;;
39454;SDS011;25155;41.890;23.446;2023-04-01T14:02:11;5.40;;;2.30;;
39454;SDS011;25155;41.890;23.446;2023-04-01T14:05:02;5.30;;;2.47;;
39454;SDS011;25155;41.890;23.446;2023-04-01T14:07:47;5.70;;;2.53;;
39454;SDS011;25155;41.890;23.446;2023-04-01T14:10:24;5.75;;;2.25;;
39454;SDS011;25155;41.890;23.446;2023-04-01T14:12:58;4.22;;;2.03;;
39454;SDS011;25155;41.890;23.446;2023-04-01T14:15:39;4.60;;;1.95;;
39454;SDS011;25155;41.890;23.446;2023-04-01T14:18:18;4.20;;;2.30;;
39454;SDS011;25155;41.890;23.446;2023-04-01T14:20:59;4.38;;;2.17;;
39454;SDS011;25155;41.890;23.446;2023-04-01T14:23:49;4.43;;;1.92;;
39454;SDS011;25155;41.890;23.446;2023-04-01T14:30:14;5.40;;;1.90;;
39454;SDS011;25155;41.890;23.446;2023-04-01T14:33:00;4.55;;;1.90;;
39454;SDS011;25155;41.890;23.446;2023-04-01T14:35:33;3.75;;;1.85;;
39454;SDS011;25155;41.890;23.446;2023-04-01T14:38:06;4.32;;;2.00;;
39454;SDS011;25155;41.890;23.446;2023-04-01T14:41:05;3.25;;;2.08;;
39454;SDS011;25155;41.890;23.446;2023-04-01T14:43:48;4.65;;;1.90;;
39454;SDS011;25155;41.890;23.446;2023-04-01T14:49:39;2.22;;;1.60;;
39454;SDS011;25155;41.890;23.446;2023-04-01T14:52:10;4.47;;;2.17;;
39454;SDS011;25155;41.890;23.446;2023-04-01T14:54:42;4.32;;;2.10;;
39454;SDS011;25155;41.890;23.446;2023-04-01T15:21:53;4.18;;;1.75;;
39454;SDS011;25155;41.890;23.446;2023-04-01T15:24:37;2.55;;;1.67;;
39454;SDS011;25155;41.890;23.446;2023-04-01T15:27:19;2.85;;;1.63;;
39454;SDS011;25155;41.890;23.446;2023-04-01T15:30:04;3.65;;;1.80;;
39454;SDS011;25155;41.890;23.446;2023-04-01T15:32:56;3.22;;;1.70;;
39454;SDS011;25155;41.890;23.446;2023-04-01T15:35:39;3.25;;;1.83;;
39454;SDS011;25155;41.890;23.446;2023-04-01T15:38:17;2.47;;;1.70;;
39454;SDS011;25155;41.890;23.446;2023-04-01T15:40:54;5.63;;;1.90;;
39454;SDS011;25155;41.890;23.446;2023-04-01T15:43:28;3.60;;;1.80;;
39454;SDS011;25155;41.890;23.446;2023-04-01T15:46:09;2.75;;;1.67;;
39454;SDS011;25155;41.890;23.446;2023-04-01T15:48:48;2.25;;;1.60;;
39454;SDS011;25155;41.890;23.446;2023-04-01T15:51:26;4.28;;;2.05;;
39454;SDS011;25155;41.890;23.446;2023-04-01T15:54:08;3.67;;;1.95;;
39454;SDS011;25155;41.890;23.446;2023-04-01T15:56:55;3.10;;;2.00;;
39454;SDS011;25155;41.890;23.446;2023-04-01T15:59:49;4.93;;;2.03;;
39454;SDS011;25155;41.890;23.446;2023-04-01T16:02:29;3.08;;;1.90;;
39454;SDS011;25155;41.890;23.446;2023-04-01T16:05:03;4.93;;;2.22;;
39454;SDS011;25155;41.890;23.446;2023-04-01T16:07:46;3.70;;;1.92;;
39454;SDS011;25155;41.890;23.446;2023-04-01T16:10:25;3.67;;;1.90;;
39454;SDS011;25155;41.890;23.446;2023-04-01T16:15:43;2.85;;;1.83;;
39454;SDS011;25155;41.890;23.446;2023-04-01T16:18:25;3.38;;;2.03;;
39454;SDS011;25155;41.890;23.446;2023-04-01T16:21:02;3.60;;;1.92;;
39454;SDS011;25155;41.890;23.446;2023-04-01T16:23:36;3.17;;;2.10;;
39454;SDS011;25155;41.890;23.446;2023-04-01T16:26:20;4.20;;;2.00;;
39454;SDS011;25155;41.890;23.446;2023-04-01T16:28:54;3.83;;;2.20;;
39454;SDS011;25155;41.890;23.446;2023-04-01T16:31:32;4.80;;;2.15;;
39454;SDS011;25155;41.890;23.446;2023-04-01T16:34:04;3.95;;;2.20;;
39454;SDS011;25155;41.890;23.446;2023-04-01T16:36:40;5.25;;;2.30;;
39454;SDS011;25155;41.890;23.446;2023-04-01T16:39:25;5.53;;;2.35;;
39454;SDS011;25155;41.890;23.446;2023-04-01T16:42:07;3.45;;;2.00;;
39454;SDS011;25155;41.890;23.446;2023-04-01T16:44:46;2.88;;;1.80;;
39454;SDS011;25155;41.890;23.446;2023-04-01T16:47:17;4.15;;;2.10;;
39454;SDS011;25155;41.890;23.446;2023-04-01T16:49:48;5.10;;;2.25;;
39454;SDS011;25155;41.890;23.446;2023-04-01T16:52:30;5.18;;;2.00;;
39454;SDS011;25155;41.890;23.446;2023-04-01T16:55:03;3.30;;;1.85;;
39454;SDS011;25155;41.890;23.446;2023-04-01T16:57:46;3.10;;;1.85;;
39454;SDS011;25155;41.890;23.446;2023-04-01T17:00:21;4.10;;;1.80;;
39454;SDS011;25155;41.890;23.446;2023-04-01T17:02:56;4.45;;;1.90;;
39454;SDS011;25155;41.890;23.446;2023-04-01T17:05:37;3.53;;;2.03;;
39454;SDS011;25155;41.890;23.446;2023-04-01T17:08:14;4.97;;;1.95;;
39454;SDS011;25155;41.890;23.446;2023-04-01T17:10:51;3.63;;;1.90;;
39454;SDS011;25155;41.890;23.446;2023-04-01T17:13:35;5.80;;;2.05;;
39454;SDS011;25155;41.890;23.446;2023-04-01T17:16:14;3.58;;;1.98;;
39454;SDS011;25155;41.890;23.446;2023-04-01T17:18:57;3.25;;;1.75;;
39454;SDS011;25155;41.890;23.446;2023-04-01T17:21:38;3.72;;;1.70;;
39454;SDS011;25155;41.890;23.446;2023-04-01T17:24:22;3.75;;;2.05;;
39454;SDS011;25155;41.890;23.446;2023-04-01T17:26:59;2.87;;;1.90;;
39454;SDS011;25155;41.890;23.446;2023-04-01T17:29:39;2.72;;;1.92;;
39454;SDS011;25155;41.890;23.446;2023-04-01T17:32:11;5.15;;;1.90;;
39454;SDS011;25155;41.890;23.446;2023-04-01T17:34:53;4.25;;;2.20;;
39454;SDS011;25155;41.890;23.446;2023-04-01T17:37:36;4.43;;;2.00;;
39454;SDS011;25155;41.890;23.446;2023-04-01T17:40:16;3.25;;;1.80;;
39454;SDS011;25155;41.890;23.446;2023-04-01T17:42:55;2.38;;;1.80;;
39454;SDS011;25155;41.890;23.446;2023-04-01T17:45:30;5.00;;;2.10;;
39454;SDS011;25155;41.890;23.446;2023-04-01T17:48:08;2.33;;;1.60;;
39454;SDS011;25155;41.890;23.446;2023-04-01T17:50:49;4.00;;;1.77;;
39454;SDS011;25155;41.890;23.446;2023-04-01T17:53:29;2.95;;;1.85;;
39454;SDS011;25155;41.890;23.446;2023-04-01T17:56:05;3.53;;;2.03;;
39454;SDS011;25155;41.890;23.446;2023-04-01T17:58:42;5.78;;;1.75;;
39454;SDS011;25155;41.890;23.446;2023-04-01T18:01:19;2.58;;;1.70;;
39454;SDS011;25155;41.890;23.446;2023-04-01T18:03:57;2.38;;;1.50;;
39454;SDS011;25155;41.890;23.446;2023-04-01T18:06:34;2.65;;;1.63;;
39454;SDS011;25155;41.890;23.446;2023-04-01T18:09:09;2.00;;;1.50;;
39454;SDS011;25155;41.890;23.446;2023-04-01T18:11:56;2.58;;;1.23;;
39454;SDS011;25155;41.890;23.446;2023-04-01T18:14:36;2.13;;;1.40;;
39454;SDS011;25155;41.890;23.446;2023-04-01T18:17:38;5.53;;;1.70;;
39454;SDS011;25155;41.890;23.446;2023-04-01T18:20:24;4.97;;;1.92;;
39454;SDS011;25155;41.890;23.446;2023-04-01T18:22:59;3.05;;;1.92;;
39454;SDS011;25155;41.890;23.446;2023-04-01T18:25:32;5.47;;;2.00;;
39454;SDS011;25155;41.890;23.446;2023-04-01T18:28:17;4.60;;;2.13;;
39454;SDS011;25155;41.890;23.446;2023-04-01T18:30:51;3.53;;;1.88;;
39454;SDS011;25155;41.890;23.446;2023-04-01T18:33:23;4.45;;;2.05;;
39454;SDS011;25155;41.890;23.446;2023-04-01T18:35:57;6.55;;;2.33;;
39454;SDS011;25155;41.890;23.446;2023-04-01T18:38:35;6.63;;;2.40;;
39454;SDS011;25155;41.890;23.446;2023-04-01T18:41:11;5.50;;;2.13;;
39454;SDS011;25155;41.890;23.446;2023-04-01T18:43:42;4.18;;;2.28;;
39454;SDS011;25155;41.890;23.446;2023-04-01T18:46:23;5.40;;;2.33;;
39454;SDS011;25155;41.890;23.446;2023-04-01T18:49:07;3.60;;;2.38;;
39454;SDS011;25155;41.890;23.446;2023-04-01T18:51:45;4.03;;;2.22;;
39454;SDS011;25155;41.890;23.446;2023-04-01T18:54:20;3.88;;;2.20;;
39454;SDS011;25155;41.890;23.446;2023-04-01T18:56:58;5.15;;;2.10;;
39454;SDS011;25155;41.890;23.446;2023-04-01T18:59:29;5.63;;;2.40;;
39454;SDS011;25155;41.890;23.446;2023-04-01T19:02:04;5.75;;;2.38;;
39454;SDS011;25155;41.890;23.446;2023-04-01T19:04:46;6.65;;;2.17;;
39454;SDS011;25155;41.890;23.446;2023-04-01T19:07:34;4.97;;;2.55;;
39454;SDS011;25155;41.890;23.446;2023-04-01T19:10:26;5.93;;;2.53;;
39454;SDS011;25155;41.890;23.446;2023-04-01T19:13:06;4.40;;;2.28;;
39454;SDS011;25155;41.890;23.446;2023-04-01T19:15:46;5.20;;;2.60;;
39454;SDS011;25155;41.890;23.446;2023-04-01T19:18:26;5.20;;;2.38;;
39454;SDS011;25155;41.890;23.446;2023-04-01T19:21:16;5.85;;;2.67;;
39454;SDS011;25155;41.890;23.446;2023-04-01T19:26:46;4.80;;;2.35;;
39454;SDS011;25155;41.890;23.446;2023-04-01T19:29:26;4.53;;;2.28;;
39454;SDS011;25155;41.890;23.446;2023-04-01T19:32:07;4.43;;;2.20;;
39454;SDS011;25155;41.890;23.446;2023-04-01T19:34:46;4.75;;;2.25;;
39454;SDS011;25155;41.890;23.446;2023-04-01T19:37:33;6.10;;;2.40;;
39454;SDS011;25155;41.890;23.446;2023-04-01T19:40:16;4.60;;;2.50;;
39454;SDS011;25155;41.890;23.446;2023-04-01T19:42:54;6.50;;;2.63;;
39454;SDS011;25155;41.890;23.446;2023-04-01T19:45:32;4.72;;;2.60;;
39454;SDS011;25155;41.890;23.446;2023-04-01T19:48:07;3.40;;;2.10;;
39454;SDS011;25155;41.890;23.446;2023-04-01T19:50:45;3.83;;;2.30;;
39454;SDS011;25155;41.890;23.446;2023-04-01T19:53:21;4.95;;;2.50;;
39454;SDS011;25155;41.890;23.446;2023-04-01T19:55:59;4.13;;;2.10;;
39454;SDS011;25155;41.890;23.446;2023-04-01T19:58:35;3.53;;;2.30;;
39454;SDS011;25155;41.890;23.446;2023-04-01T20:01:10;3.90;;;2.13;;
39454;SDS011;25155;41.890;23.446;2023-04-01T20:03:44;5.07;;;2.20;;
39454;SDS011;25155;41.890;23.446;2023-04-01T20:06:21;4.75;;;2.30;;
39454;SDS011;25155;41.890;23.446;2023-04-01T20:09:01;4.50;;;2.50;;
39454;SDS011;25155;41.890;23.446;2023-04-01T20:11:48;5.13;;;2.50;;
39454;SDS011;25155;41.890;23.446;2023-04-01T20:14:27;7.07;;;2.35;;
39454;SDS011;25155;41.890;23.446;2023-04-01T20:17:07;5.00;;;2.13;;
39454;SDS011;25155;41.890;23.446;2023-04-01T20:19:44;4.35;;;2.20;;
39454;SDS011;25155;41.890;23.446;2023-04-01T20:22:24;4.75;;;2.40;;
39454;SDS011;25155;41.890;23.446;2023-04-01T20:25:05;3.38;;;2.08;;
39454;SDS011;25155;41.890;23.446;2023-04-01T20:27:41;3.85;;;2.28;;
39454;SDS011;25155;41.890;23.446;2023-04-01T20:30:21;4.25;;;2.10;;
39454;SDS011;25155;41.890;23.446;2023-04-01T20:33:28;4.22;;;2.00;;
39454;SDS011;25155;41.890;23.446;2023-04-01T20:36:21;4.97;;;2.20;;
39454;SDS011;25155;41.890;23.446;2023-04-01T20:39:01;3.08;;;2.00;;
39454;SDS011;25155;41.890;23.446;2023-04-01T20:41:43;3.92;;;2.17;;
39454;SDS011;25155;41.890;23.446;2023-04-01T20:44:21;4.20;;;2.20;;
39454;SDS011;25155;41.890;23.446;2023-04-01T20:47:01;4.53;;;2.30;;
39454;SDS011;25155;41.890;23.446;2023-04-01T20:49:41;3.20;;;1.90;;
39454;SDS011;25155;41.890;23.446;2023-04-01T20:52:25;3.35;;;2.05;;
39454;SDS011;25155;41.890;23.446;2023-04-01T20:55:13;3.17;;;1.80;;
39454;SDS011;25155;41.890;23.446;2023-04-01T20:57:57;3.75;;;2.10;;
39454;SDS011;25155;41.890;23.446;2023-04-01T21:00:40;5.95;;;2.05;;
39454;SDS011;25155;41.890;23.446;2023-04-01T21:03:20;4.47;;;1.83;;
39454;SDS011;25155;41.890;23.446;2023-04-01T21:09:23;3.20;;;1.92;;
39454;SDS011;25155;41.890;23.446;2023-04-01T21:12:05;4.78;;;1.95;;
39454;SDS011;25155;41.890;23.446;2023-04-01T21:14:51;2.40;;;1.80;;
39454;SDS011;25155;41.890;23.446;2023-04-01T21:17:40;4.25;;;2.03;;
39454;SDS011;25155;41.890;23.446;2023-04-01T21:20:31;2.80;;;1.92;;
39454;SDS011;25155;41.890;23.446;2023-04-01T21:23:23;2.95;;;1.80;;
39454;SDS011;25155;41.890;23.446;2023-04-01T21:26:12;3.42;;;1.77;;
39454;SDS011;25155;41.890;23.446;2023-04-01T21:28:58;2.50;;;1.80;;
39454;SDS011;25155;41.890;23.446;2023-04-01T21:31:47;4.07;;;2.25;;
39454;SDS011;25155;41.890;23.446;2023-04-01T21:34:32;2.60;;;1.80;;
39454;SDS011;25155;41.890;23.446;2023-04-01T21:42:59;2.78;;;1.85;;
39454;SDS011;25155;41.890;23.446;2023-04-01T21:45:41;1.73;;;1.60;;
39454;SDS011;25155;41.890;23.446;2023-04-01T21:51:33;2.17;;;1.65;;
39454;SDS011;25155;41.890;23.446;2023-04-01T21:54:30;2.63;;;1.60;;
39454;SDS011;25155;41.890;23.446;2023-04-01T22:00:27;2.13;;;1.70;;
39454;SDS011;25155;41.890;23.446;2023-04-01T22:03:13;1.90;;;1.60;;
39454;SDS011;25155;41.890;23.446;2023-04-01T22:06:08;2.10;;;1.58;;
39454;SDS011;25155;41.890;23.446;2023-04-01T22:08:52;1.70;;;1.40;;
39454;SDS011;25155;41.890;23.446;2023-04-01T22:11:29;2.03;;;1.60;;
39454;SDS011;25155;41.890;23.446;2023-04-01T22:14:03;2.00;;;1.50;;
39454;SDS011;25155;41.890;23.446;2023-04-01T22:16:38;2.03;;;1.58;;
39454;SDS011;25155;41.890;23.446;2023-04-01T22:19:13;1.30;;;1.20;;
39454;SDS011;25155;41.890;23.446;2023-04-01T22:21:50;2.63;;;1.65;;
39454;SDS011;25155;41.890;23.446;2023-04-01T22:24:28;1.80;;;1.33;;
39454;SDS011;25155;41.890;23.446;2023-04-01T22:27:03;1.65;;;1.40;;
39454;SDS011;25155;41.890;23.446;2023-04-01T22:29:41;1.40;;;1.30;;
39454;SDS011;25155;41.890;23.446;2023-04-01T22:32:15;1.40;;;1.30;;
39454;SDS011;25155;41.890;23.446;2023-04-01T22:34:49;1.50;;;1.40;;
39454;SDS011;25155;41.890;23.446;2023-04-01T22:37:23;1.40;;;1.30;;
39454;SDS011;25155;41.890;23.446;2023-04-01T22:40:11;1.10;;;1.10;;
39454;SDS011;25155;41.890;23.446;2023-04-01T22:42:49;1.23;;;1.10;;
39454;SDS011;25155;41.890;23.446;2023-04-01T22:45:29;1.33;;;1.23;;
39454;SDS011;25155;41.890;23.446;2023-04-01T22:48:09;1.05;;;1.05;;
39454;SDS011;25155;41.890;23.446;2023-04-01T22:50:43;1.42;;;1.25;;
39454;SDS011;25155;41.890;23.446;2023-04-01T22:53:32;1.25;;;1.15;;
39454;SDS011;25155;41.890;23.446;2023-04-01T22:56:11;1.30;;;1.20;;
39454;SDS011;25155;41.890;23.446;2023-04-01T22:58:43;1.40;;;1.30;;